Time;durP1;ratioP1;P1;durP2;ratioP2;P2;SDS_P1;SDS_P2;PMS_P1;PMS_P2;Temp;Humidity;BMP_temperature;BMP_pressure;BME280_temperature;BME280_humidity;BME280_pressure;Samples;Min_cycle;Max_cycle;Signal;HPM_P1;HPM_P2
2022/01/18 00:00:19;;;;;;;5.58;1.45;;;;;;;1.07;79.66;147940.27;1722478;82;20901;-57
2022/01/18 00:02:46;;;;;;;6.83;1.90;;;;;;;1.04;79.72;147932.55;1735031;81;21060;-57
2022/01/18 00:05:14;;;;;;;4.47;1.95;;;;;;;1.02;79.70;147926.09;1743174;82;21574;-57
2022/01/18 00:07:43;;;;;;;2.35;1.30;;;;;;;1.00;79.63;147923.52;1743113;82;21012;-58
2022/01/18 00:10:10;;;;;;;3.42;1.47;;;;;;;0.97;79.42;147914.48;1743678;81;21555;-57
2022/01/18 00:18:06;;;;;;;2.37;1.30;;;;;;;0.83;79.53;147881.03;1748243;81;21015;-57
2022/01/18 00:20:39;;;;;;;8.25;1.25;;;;;;;0.78;79.50;147866.84;1741056;82;21041;-58
2022/01/18 00:22:54;;;;;;;4.87;1.60;;;;;;;0.73;79.63;147855.25;1740378;82;21400;-58
2022/01/18 00:25:21;;;;;;;5.53;1.30;;;;;;;0.71;79.93;147850.09;1740064;81;21085;-57
2022/01/18 00:27:48;;;;;;;3.72;1.57;;;;;;;0.68;80.01;147843.69;1718883;82;21222;-57
2022/01/18 00:31:00;;;;;;;5.47;1.60;;;;;;;0.67;79.84;147841.11;1741215;81;21060;-57
2022/01/18 00:35:48;;;;;;;;;;;;;;;0.65;79.62;147834.66;1769979;81;21963;-57
2022/01/18 00:38:30;;;;;;;2.67;1.55;;;;;;;0.62;79.36;147826.94;1767530;80;20156;-57
2022/01/18 00:40:43;;;;;;;3.33;1.80;;;;;;;0.58;79.27;147817.91;1751503;81;21140;-57
2022/01/18 00:43:10;;;;;;;4.25;1.60;;;;;;;0.54;79.16;147808.88;1754825;80;21041;-57
2022/01/18 00:45:37;;;;;;;5.60;1.80;;;;;;;0.52;79.24;147803.73;1782503;80;21438;-57
2022/01/18 00:48:05;;;;;;;3.00;1.50;;;;;;;0.49;79.31;147794.75;1783382;80;21046;-57
2022/01/18 00:50:33;;;;;;;4.47;1.70;;;;;;;0.49;79.35;147796.02;1783006;79;20989;-57
2022/01/18 00:52:59;;;;;;;3.92;1.52;;;;;;;0.47;79.34;147790.87;1783452;80;21333;-58
2022/01/18 00:55:33;;;;;;;3.95;1.35;;;;;;;0.45;79.32;147785.72;1779870;80;20938;-56
2022/01/18 00:57:55;;;;;;;3.83;1.50;;;;;;;0.45;79.25;147784.47;1810378;79;20945;-58
2022/01/18 01:00:21;;;;;;;4.00;1.72;;;;;;;0.44;79.18;147783.16;1797601;79;21121;-57
2022/01/18 01:02:50;;;;;;;4.33;1.80;;;;;;;0.44;79.24;147783.16;1736458;82;21085;-57
2022/01/18 01:05:16;;;;;;;3.00;1.42;;;;;;;0.42;79.11;147779.27;1767678;80;21515;-58
2022/01/18 01:07:43;;;;;;;4.78;1.60;;;;;;;0.39;79.13;147770.28;1766846;81;21095;-59
2022/01/18 01:10:09;;;;;;;5.37;1.85;;;;;;;0.37;79.18;147765.14;1742671;81;21016;-58
2022/01/18 01:12:36;;;;;;;5.78;1.90;;;;;;;0.36;79.23;147762.56;1783206;79;21840;-57
2022/01/18 01:15:10;;;;;;;4.80;1.72;;;;;;;0.34;79.20;147758.69;1775207;80;21044;-58
2022/01/18 01:17:44;;;;;;;3.90;1.82;;;;;;;0.32;79.31;147753.55;1810993;78;20989;-57
2022/01/18 01:36:28;;;;;;;3.42;1.32;;;;;;;0.29;79.60;147745.83;1770632;79;26549;-64
2022/01/18 01:46:40;;;;;;;6.40;1.72;;;;;;;0.26;79.67;147739.37;1802247;79;21096;-57
2022/01/18 01:49:12;;;;;;;3.85;1.67;;;;;;;0.28;79.74;147744.52;1782910;79;21075;-57
2022/01/18 01:51:35;;;;;;;5.70;1.50;;;;;;;0.32;79.68;147752.23;1775745;80;21150;-57
2022/01/18 01:54:05;;;;;;;4.05;2.25;;;;;;;0.34;79.43;147757.44;1775837;80;20984;-58
2022/01/18 01:56:32;;;;;;;5.92;2.08;;;;;;;0.34;79.11;147757.44;1776348;80;21036;-58
2022/01/18 01:58:59;;;;;;;5.75;1.62;;;;;;;0.32;79.01;147753.55;1797430;79;21014;-61
2022/01/18 02:01:26;;;;;;;8.23;1.90;;;;;;;0.30;79.10;147747.09;1800997;78;21114;-58
2022/01/18 02:03:53;;;;;;;4.45;1.92;;;;;;;0.30;79.15;147747.09;1781455;79;21424;-57
2022/01/18 02:06:21;;;;;;;4.62;2.15;;;;;;;0.31;79.07;147749.66;1776669;80;21449;-57
2022/01/18 02:08:48;;;;;;;3.95;2.12;;;;;;;0.33;79.22;147754.81;1776084;80;21445;-57
2022/01/18 02:11:14;;;;;;;3.45;1.80;;;;;;;0.38;79.23;147768.97;1778655;79;20980;-57
2022/01/18 02:13:41;;;;;;;3.87;1.80;;;;;;;0.43;79.03;147780.58;1786806;79;21087;-57
2022/01/18 02:16:19;;;;;;;7.28;1.60;;;;;;;0.47;79.12;147790.87;1808595;79;21477;-56
2022/01/18 02:21:46;;;;;;;4.20;1.75;;;;;;;0.59;78.74;147819.22;1735097;81;21016;-57
2022/01/18 02:24:12;;;;;;;;;;;;;;;0.59;78.73;147820.48;1738263;82;22761;-58
2022/01/18 02:26:39;;;;;;;8.43;2.42;;;;;;;0.60;78.59;147821.78;1742115;80;20222;-56
2022/01/18 02:29:08;;;;;;;4.70;1.80;;;;;;;0.55;78.81;147811.50;1811117;79;21134;-57
2022/01/18 02:31:35;;;;;;;4.80;1.75;;;;;;;0.53;79.07;147806.31;1799718;78;21043;-56
2022/01/18 02:34:07;;;;;;;6.00;2.20;;;;;;;0.49;79.38;147794.75;1810960;79;21118;-56
2022/01/18 02:36:33;;;;;;;4.90;1.60;;;;;;;0.45;79.70;147785.72;1811226;79;21049;-57
2022/01/18 02:39:00;;;;;;;3.08;1.72;;;;;;;0.42;80.10;147778.00;1796187;79;21508;-56
2022/01/18 02:41:30;;;;;;;5.03;1.45;;;;;;;0.42;80.32;147778.00;1775211;80;21521;-56
2022/01/18 02:44:12;;;;;;;3.77;1.80;;;;;;;0.42;80.47;147778.00;1770992;79;21035;-56
2022/01/18 02:46:41;;;;;;;5.50;1.62;;;;;;;0.44;80.69;147783.16;1783044;79;21034;-57
2022/01/18 02:49:08;;;;;;;2.72;1.15;;;;;;;0.48;80.96;147792.19;1811169;79;21075;-60
2022/01/18 02:51:35;;;;;;;4.95;1.50;;;;;;;0.54;81.07;147808.88;1810833;78;21059;-57
2022/01/18 02:54:08;;;;;;;5.65;1.72;;;;;;;0.60;80.85;147821.78;1789275;79;21022;-57
2022/01/18 02:56:55;;;;;;;8.78;1.92;;;;;;;0.64;80.92;147832.08;1769407;81;21282;-58
2022/01/18 03:00:02;;;;;;;6.07;1.70;;;;;;;0.69;80.74;147844.95;1769848;80;21408;-58
2022/01/18 03:04:47;;;;;;;3.92;1.70;;;;;;;0.73;80.63;147855.25;1802132;79;21041;-57
2022/01/18 03:07:14;;;;;;;4.70;2.00;;;;;;;0.76;80.62;147861.70;1767069;81;21163;-57
2022/01/18 03:09:41;;;;;;;4.15;1.80;;;;;;;0.75;80.66;147860.39;1736097;82;21514;-58
2022/01/18 03:12:09;;;;;;;3.45;1.80;;;;;;;0.76;80.86;147862.97;1766686;81;21025;-57
2022/01/18 03:14:36;;;;;;;8.48;2.05;;;;;;;0.75;80.74;147860.39;1760372;81;21044;-57
2022/01/18 03:17:03;;;;;;;3.62;1.40;;;;;;;0.76;80.95;147862.97;1732886;82;21045;-57
2022/01/18 03:19:30;;;;;;;5.17;1.65;;;;;;;0.76;81.08;147861.70;1727069;81;22364;-57
2022/01/18 03:21:57;;;;;;;6.85;1.80;;;;;;;0.78;81.12;147868.16;1735460;82;21134;-64
2022/01/18 03:29:38;;;;;;;7.55;1.70;;;;;;;0.79;81.28;147869.42;1781057;80;21329;-65
2022/01/18 03:32:06;;;;;;;5.58;1.50;;;;;;;0.78;81.29;147868.16;1727305;82;22447;-65
2022/01/18 03:34:33;;;;;;;7.85;2.17;;;;;;;0.78;81.48;147868.16;1783687;80;20986;-64
2022/01/18 03:37:00;;;;;;;4.20;1.57;;;;;;;0.77;81.47;147865.53;1737193;82;21071;-65
2022/01/18 03:39:27;;;;;;;5.03;1.57;;;;;;;0.74;81.50;147857.81;1783270;80;21357;-65
2022/01/18 03:41:57;;;;;;;5.22;2.05;;;;;;;0.73;81.72;147855.25;1736540;82;20961;-64
2022/01/18 03:44:25;;;;;;;5.25;1.65;;;;;;;0.72;81.74;147852.67;1787704;79;21187;-64
2022/01/18 03:46:53;;;;;;;6.28;1.60;;;;;;;0.73;81.82;147853.98;1813744;78;21076;-64
2022/01/18 03:49:23;;;;;;;3.75;1.65;;;;;;;0.73;81.97;147855.25;1794945;78;20970;-65
2022/01/18 03:51:48;;;;;;;6.60;1.60;;;;;;;0.74;82.10;147857.81;1794195;79;20958;-65
2022/01/18 03:54:21;;;;;;;3.50;1.47;;;;;;;0.75;81.97;147860.39;1794536;79;21061;-65
2022/01/18 03:56:44;;;;;;;5.15;1.40;;;;;;;0.74;81.95;147857.81;1793002;79;21148;-65
2022/01/18 03:59:10;;;;;;;4.55;1.75;;;;;;;0.71;81.90;147851.41;1794368;79;20993;-65
2022/01/18 04:01:37;;;;;;;2.37;1.35;;;;;;;0.70;81.89;147847.52;1728990;82;21075;-66
2022/01/18 04:04:04;;;;;;;4.28;1.57;;;;;;;0.67;81.93;147841.11;1747335;82;21056;-65
2022/01/18 04:06:31;;;;;;;7.75;1.85;;;;;;;0.68;81.77;147843.69;1747161;82;21091;-65
2022/01/18 04:08:59;;;;;;;4.92;1.50;;;;;;;0.70;81.80;147847.52;1746981;82;21120;-65
2022/01/18 04:11:27;;;;;;;7.17;1.60;;;;;;;0.71;81.72;147850.09;1747500;82;21486;-64
2022/01/18 04:13:53;;;;;;;5.87;1.65;;;;;;;0.73;81.49;147853.98;1791424;80;22199;-65
2022/01/18 04:16:20;;;;;;;4.08;1.62;;;;;;;0.73;81.43;147855.25;1750133;81;21049;-65
2022/01/18 04:19:21;;;;;;;6.05;1.72;;;;;;;0.72;81.42;147852.67;1751802;80;21071;-65
2022/01/18 04:26:56;;;;;;;;;;;;;;;0.81;80.59;147874.56;1730103;83;21077;-63
2022/01/18 04:29:21;;;;;;;5.87;1.55;;;;;;;0.85;80.58;147886.17;1727866;83;20223;-66
2022/01/18 04:31:48;;;;;;;3.67;1.27;;;;;;;0.89;80.43;147893.89;1714163;83;21047;-65
2022/01/18 04:34:15;;;;;;;7.22;1.62;;;;;;;0.93;80.15;147905.50;1727885;83;21482;-65
2022/01/18 04:36:42;;;;;;;5.67;1.37;;;;;;;0.98;80.10;147917.06;1746296;82;20993;-65
2022/01/18 04:39:08;;;;;;;5.53;1.42;;;;;;;1.01;79.70;147924.83;1724785;82;21083;-66
2022/01/18 04:41:35;;;;;;;5.97;1.55;;;;;;;1.04;78.61;147932.55;1714488;83;20980;-65
2022/01/18 04:44:16;;;;;;;5.67;1.50;;;;;;;1.08;78.70;147942.84;1725373;83;21427;-65
2022/01/18 04:49:16;;;;;;;3.62;1.15;;;;;;;1.13;77.13;147955.72;1737539;82;21033;-57
2022/01/18 04:51:45;;;;;;;4.90;1.10;;;;;;;1.15;76.44;147959.59;1737054;81;21088;-58
2022/01/18 04:54:12;;;;;;;4.55;1.10;;;;;;;1.12;75.21;147951.88;1767720;79;21010;-56
2022/01/18 04:59:08;;;;;;;4.40;1.20;;;;;;;1.09;74.30;147945.42;1737062;81;21853;-57
2022/01/18 05:01:35;;;;;;;7.85;1.00;;;;;;;1.07;73.61;147940.27;1712231;82;20973;-57
2022/01/18 05:04:01;;;;;;;7.50;1.22;;;;;;;1.03;72.15;147929.97;1766594;81;21053;-57
2022/01/18 05:06:28;;;;;;;8.48;1.57;;;;;;;1.00;70.79;147922.25;1756619;81;20860;-57
2022/01/18 05:08:56;;;;;;;5.10;1.30;;;;;;;0.98;70.34;147917.06;1756081;80;21066;-58
2022/01/18 05:11:25;;;;;;;2.20;0.80;;;;;;;0.95;69.64;147909.33;1726473;82;21155;-58
2022/01/18 05:14:20;;;;;;;1.77;0.80;;;;;;;0.96;69.92;147911.91;1767089;81;20937;-58
2022/01/18 05:24:26;;;;;;;3.85;0.70;;;;;;;0.81;66.20;147875.88;1787747;80;21582;-57
2022/01/18 05:26:54;;;;;;;11.80;0.97;;;;;;;0.75;65.06;147860.39;1781862;79;20960;-57
2022/01/18 05:29:21;;;;;;;2.40;0.68;;;;;;;0.70;65.86;147848.84;1783488;80;21318;-59
2022/01/18 05:31:47;;;;;;;4.85;0.68;;;;;;;0.66;65.30;147837.23;1735970;82;21558;-57
2022/01/18 05:34:14;;;;;;;4.25;0.90;;;;;;;0.60;64.58;147821.78;1767026;81;21068;-59
2022/01/18 05:36:41;;;;;;;7.67;2.80;;;;;;;0.53;64.00;147806.31;1736560;82;21132;-59
2022/01/18 05:39:11;;;;;;;76.82;27.48;;;;;;;0.48;63.63;147793.44;1766873;81;20985;-57
2022/01/18 05:41:39;;;;;;;23.57;9.58;;;;;;;0.42;63.21;147778.00;1743242;80;20997;-57
2022/01/18 05:44:06;;;;;;;32.90;11.97;;;;;;;0.39;62.26;147770.28;1736016;82;21077;-57
2022/01/18 05:46:34;;;;;;;8.45;1.27;;;;;;;0.32;61.91;147753.55;1724974;82;21498;-57
2022/01/18 05:49:02;;;;;;;6.87;2.27;;;;;;;0.25;60.37;147735.53;1736077;81;21670;-62
2022/01/18 05:51:30;;;;;;;5.25;2.17;;;;;;;0.18;60.96;147718.80;1756882;81;20864;-57
2022/01/18 05:53:57;;;;;;;26.05;9.88;;;;;;;0.12;60.81;147703.36;1735275;82;21084;-57
2022/01/18 05:56:24;;;;;;;75.72;24.23;;;;;;;0.07;61.67;147690.45;1733673;81;21486;-57
2022/01/18 05:58:53;;;;;;;31.17;11.50;;;;;;;-0.01;62.23;147672.45;1809803;79;21644;-58
2022/01/18 06:01:25;;;;;;;8.90;3.45;;;;;;;-0.05;61.78;147662.16;1785151;79;21144;-58
2022/01/18 06:04:07;;;;;;;1.47;0.70;;;;;;;-0.06;61.51;147659.59;1775080;80;21064;-57
2022/01/18 06:09:05;;;;;;;15.40;3.90;;;;;;;-0.02;59.62;147668.56;1775095;80;21528;-57
2022/01/18 06:11:32;;;;;;;10.58;4.42;;;;;;;-0.02;59.63;147669.88;1798602;79;20953;-58
2022/01/18 06:13:59;;;;;;;24.35;9.90;;;;;;;0.02;60.20;147677.59;1767483;80;21889;-57
2022/01/18 06:16:26;;;;;;;4.08;1.52;;;;;;;0.04;60.81;147682.73;1798233;79;21431;-58
2022/01/18 06:18:54;;;;;;;53.52;21.10;;;;;;;0.09;60.01;147695.59;1802075;79;21063;-57
2022/01/18 06:21:22;;;;;;;26.12;11.33;;;;;;;0.09;59.39;147696.91;1802815;79;21415;-57
2022/01/18 06:23:49;;;;;;;34.08;12.70;;;;;;;0.11;59.61;147702.05;1806070;78;21020;-66
2022/01/18 06:26:16;;;;;;;33.48;13.32;;;;;;;0.16;59.38;147713.66;1791113;79;21911;-66
2022/01/18 06:28:46;;;;;;;7.80;2.27;;;;;;;0.19;59.25;147721.38;1781742;79;21161;-65
2022/01/18 06:31:15;;;;;;;9.28;3.95;;;;;;;0.21;59.00;147725.20;1797375;79;21036;-64
2022/01/18 06:33:42;;;;;;;23.45;9.40;;;;;;;0.18;58.62;147717.48;1797314;79;20984;-65
2022/01/18 06:36:09;;;;;;;8.40;2.35;;;;;;;0.15;58.46;147711.08;1784753;79;21088;-65
2022/01/18 06:38:36;;;;;;;2.67;1.07;;;;;;;0.10;57.88;147698.17;1789065;79;21823;-66
2022/01/18 06:41:04;;;;;;;3.95;1.42;;;;;;;0.06;57.44;147689.19;1794887;79;21091;-65
2022/01/18 06:43:31;;;;;;;11.28;4.62;;;;;;;0.06;57.71;147687.87;1752053;81;21105;-65
2022/01/18 06:45:58;;;;;;;10.70;4.28;;;;;;;0.04;57.88;147684.05;1736410;80;21069;-66
2022/01/18 06:48:26;;;;;;;24.20;8.63;;;;;;;0.04;58.08;147682.73;1749248;81;20989;-66
2022/01/18 06:50:52;;;;;;;11.60;3.00;;;;;;;0.04;58.25;147682.73;1748396;81;21081;-66
2022/01/18 06:53:21;;;;;;;33.30;13.75;;;;;;;0.06;58.63;147689.19;1751851;81;21457;-65
2022/01/18 06:55:52;;;;;;;35.85;15.13;;;;;;;0.11;58.99;147702.05;1752515;81;21040;-66
2022/01/18 06:58:18;;;;;;;11.20;3.67;;;;;;;0.16;58.34;147713.66;1754490;80;21060;-66
2022/01/18 07:00:46;;;;;;;80.35;32.50;;;;;;;0.20;57.52;147723.94;1745489;81;21087;-65
2022/01/18 07:03:12;;;;;;;24.35;9.10;;;;;;;0.23;58.06;147730.39;1746847;80;21504;-66
2022/01/18 07:05:40;;;;;;;3.10;1.20;;;;;;;0.26;58.40;147738.11;1744816;81;21095;-65
2022/01/18 07:08:07;;;;;;;18.45;4.42;;;;;;;0.31;57.92;147749.66;1748973;81;21211;-65
2022/01/18 07:10:34;;;;;;;11.53;2.50;;;;;;;0.33;57.87;147756.11;1745672;81;21069;-66
2022/01/18 07:13:01;;;;;;;4.37;0.80;;;;;;;0.38;57.73;147768.97;1746978;81;21091;-65
2022/01/18 07:15:28;;;;;;;22.55;8.63;;;;;;;0.40;57.00;147772.86;1746375;81;21535;-66
2022/01/18 07:17:55;;;;;;;20.08;8.10;;;;;;;0.41;57.31;147775.44;1788694;79;21017;-65
2022/01/18 07:20:24;;;;;;;28.60;9.95;;;;;;;0.38;57.14;147768.97;1753818;79;21072;-68
2022/01/18 07:22:52;;;;;;;95.67;38.05;;;;;;;0.35;57.29;147761.27;1755368;80;21487;-68
2022/01/18 07:25:20;;;;;;;52.67;24.40;;;;;;;0.27;57.06;147741.94;1756644;80;20996;-66
2022/01/18 07:27:47;;;;;;;7.92;3.52;;;;;;;0.20;57.09;147723.94;1753107;81;22614;-65
2022/01/18 07:30:14;;;;;;;40.43;16.17;;;;;;;0.17;57.05;147714.91;1720197;81;21054;-64
2022/01/18 07:32:41;;;;;;;13.48;3.10;;;;;;;0.15;57.66;147711.08;1754099;79;22122;-65
2022/01/18 07:35:11;;;;;;;11.97;5.35;;;;;;;0.17;58.27;147716.22;1759838;80;21119;-65
2022/01/18 07:37:38;;;;;;;22.90;8.80;;;;;;;0.21;57.81;147726.50;1752828;80;21084;-65
2022/01/18 07:40:07;;;;;;;35.63;15.48;;;;;;;0.19;57.52;147721.38;1738826;81;21337;-66
2022/01/18 07:42:35;;;;;;;41.80;14.98;;;;;;;0.12;57.41;147704.63;1740861;81;21032;-66
2022/01/18 07:45:03;;;;;;;46.92;19.12;;;;;;;0.11;57.86;147700.75;1766488;79;21088;-65
2022/01/18 07:47:31;;;;;;;15.65;4.12;;;;;;;0.10;58.11;147698.17;1773278;78;21123;-66
2022/01/18 07:49:59;;;;;;;79.22;29.95;;;;;;;0.05;58.15;147685.31;1774712;79;21374;-66
2022/01/18 07:52:26;;;;;;;62.90;28.65;;;;;;;-0.05;58.48;147662.16;1769971;80;21396;-66
2022/01/18 07:54:53;;;;;;;61.05;21.80;;;;;;;-0.13;58.49;147641.55;1767453;79;21039;-66
2022/01/18 07:57:21;;;;;;;219.75;92.20;;;;;;;-0.20;58.43;147623.55;1803018;78;21079;-65
2022/01/18 07:59:48;;;;;;;115.77;43.20;;;;;;;-0.23;58.69;147615.83;1812742;78;21017;-66
2022/01/18 08:02:15;;;;;;;34.35;12.75;;;;;;;-0.22;58.86;147618.41;1803090;78;21051;-66
2022/01/18 08:04:42;;;;;;;77.72;30.32;;;;;;;-0.22;59.29;147618.41;1800403;78;21139;-67
2022/01/18 08:07:15;;;;;;;171.10;66.07;;;;;;;-0.26;58.81;147608.13;1802253;78;21071;-66
2022/01/18 08:09:43;;;;;;;81.08;31.80;;;;;;;-0.27;58.52;147605.55;1801691;78;21059;-66
2022/01/18 08:12:11;;;;;;;62.05;24.23;;;;;;;-0.28;58.75;147602.97;1799604;78;21581;-67
2022/01/18 08:14:46;;;;;;;38.70;14.43;;;;;;;-0.25;58.69;147611.95;1804031;78;21540;-67
2022/01/18 08:17:12;;;;;;;166.10;61.83;;;;;;;-0.21;58.86;147620.97;1807879;77;21293;-66
2022/01/18 08:19:40;;;;;;;106.50;35.68;;;;;;;-0.27;62.59;147605.55;1798945;78;21039;-58
2022/01/18 08:22:08;;;;;;;113.03;43.17;;;;;;;-0.43;63.54;147566.94;1801699;78;21608;-58
2022/01/18 08:24:35;;;;;;;73.02;28.42;;;;;;;-0.48;62.13;147554.08;1806226;78;21027;-57
2022/01/18 08:27:03;;;;;;;100.85;39.55;;;;;;;-0.44;60.69;147564.36;1804951;78;21099;-58
2022/01/18 08:29:30;;;;;;;69.90;27.60;;;;;;;-0.37;58.48;147582.36;1769188;79;21171;-57
2022/01/18 08:31:57;;;;;;;18.25;6.28;;;;;;;-0.33;57.27;147592.69;1804572;78;21087;-57
2022/01/18 08:34:23;;;;;;;4.35;1.72;;;;;;;-0.27;57.85;147605.55;1805278;78;20988;-57
2022/01/18 08:36:51;;;;;;;80.03;30.77;;;;;;;-0.26;57.33;147608.13;1805582;78;21452;-57
2022/01/18 08:39:18;;;;;;;169.97;60.20;;;;;;;-0.28;60.04;147602.97;1794298;78;43358;-56
2022/01/18 08:41:48;;;;;;;90.65;34.58;;;;;;;-0.33;60.08;147592.69;1796892;78;21578;-59
2022/01/18 08:44:15;;;;;;;55.28;20.20;;;;;;;-0.41;59.43;147572.08;1802168;78;21004;-58
2022/01/18 08:46:42;;;;;;;79.40;30.50;;;;;;;-0.41;59.01;147570.81;1809283;77;21055;-57
2022/01/18 08:49:11;;;;;;;117.03;46.37;;;;;;;-0.42;57.78;147569.50;1813770;78;21096;-57
2022/01/18 08:51:38;;;;;;;17.80;6.80;;;;;;;-0.41;58.08;147570.81;1813992;78;22315;-57
2022/01/18 08:54:05;;;;;;;134.27;47.10;;;;;;;-0.39;58.37;147575.95;1766145;79;21084;-57
2022/01/18 08:56:33;;;;;;;45.80;18.95;;;;;;;-0.38;58.10;147579.78;1814415;77;21004;-57
2022/01/18 08:59:00;;;;;;;105.95;37.73;;;;;;;-0.39;58.04;147577.22;1816634;77;20991;-57
2022/01/18 09:01:27;;;;;;;29.37;13.00;;;;;;;-0.35;57.24;147586.23;1814849;77;21068;-65
2022/01/18 09:03:54;;;;;;;25.37;9.93;;;;;;;-0.33;56.65;147592.69;1819075;77;21086;-66
2022/01/18 09:06:23;;;;;;;68.02;25.77;;;;;;;-0.31;54.95;147597.84;1818006;77;21909;-65
2022/01/18 09:08:56;;;;;;;137.50;47.60;;;;;;;-0.26;54.85;147608.13;1813350;77;21074;-66
2022/01/18 09:11:18;;;;;;;112.90;44.10;;;;;;;-0.24;52.09;147613.27;1811355;77;21095;-66
2022/01/18 09:13:45;;;;;;;41.90;16.48;;;;;;;-0.19;52.80;147626.12;1817086;77;21122;-66
2022/01/18 09:16:13;;;;;;;25.65;10.23;;;;;;;-0.18;53.48;147628.69;1816255;77;21055;-68
2022/01/18 09:18:40;;;;;;;12.93;5.42;;;;;;;-0.21;54.40;147620.97;1807964;77;21551;-66
2022/01/18 09:21:07;;;;;;;45.23;17.73;;;;;;;-0.20;55.39;147623.55;1771299;79;21452;-66
2022/01/18 09:23:36;;;;;;;65.45;24.75;;;;;;;-0.19;55.53;147626.12;1770766;79;21484;-63
2022/01/18 09:26:02;;;;;;;115.52;46.37;;;;;;;-0.19;56.45;147626.12;1812843;77;21041;-69
2022/01/18 09:28:31;;;;;;;149.57;58.45;;;;;;;-0.28;59.68;147602.97;1815929;77;20983;-67
2022/01/18 09:30:58;;;;;;;98.78;39.65;;;;;;;-0.33;58.44;147591.38;1809914;77;21120;-66
2022/01/18 09:33:24;;;;;;;56.73;21.80;;;;;;;-0.33;57.50;147591.38;1809636;77;21454;-64
2022/01/18 09:35:51;;;;;;;46.37;17.67;;;;;;;-0.30;56.36;147599.09;1815960;77;21060;-64
2022/01/18 09:38:18;;;;;;;90.67;31.62;;;;;;;-0.25;56.47;147610.69;1816371;77;21099;-68
2022/01/18 09:40:45;;;;;;;64.58;27.13;;;;;;;-0.20;55.82;147623.55;1803913;77;21337;-68
2022/01/18 09:43:15;;;;;;;22.85;9.08;;;;;;;-0.14;54.95;147638.97;1811400;77;21452;-67
2022/01/18 09:45:43;;;;;;;64.67;26.37;;;;;;;-0.09;56.29;147650.56;1807063;77;21495;-67
2022/01/18 09:48:10;;;;;;;80.87;32.30;;;;;;;-0.15;55.26;147636.41;1790172;78;21099;-67
2022/01/18 09:50:38;;;;;;;56.33;19.50;;;;;;;-0.25;56.48;147611.95;1792044;79;21087;-69
2022/01/18 09:53:07;;;;;;;116.20;44.55;;;;;;;-0.31;55.81;147597.84;1787879;78;21474;-66
2022/01/18 09:55:34;;;;;;;96.63;35.45;;;;;;;-0.32;54.58;147595.27;1732167;82;21172;-67
2022/01/18 09:58:07;;;;;;;65.92;24.92;;;;;;;-0.26;54.21;147609.38;1752305;80;21140;-64
2022/01/18 10:00:39;;;;;;;147.75;54.15;;;;;;;-0.21;54.01;147620.97;1752468;79;21063;-66
2022/01/18 10:03:26;;;;;;;162.35;59.70;;;;;;;-0.22;56.01;147618.41;1752497;80;21266;-57
2022/01/18 10:05:53;;;;;;;105.00;37.93;;;;;;;-0.26;54.93;147608.13;1676057;83;21115;-57
2022/01/18 10:08:20;;;;;;;112.00;42.17;;;;;;;-0.21;54.39;147620.97;1735864;80;21554;-65
2022/01/18 10:10:53;;;;;;;68.37;26.40;;;;;;;-0.12;53.76;147644.13;1730035;81;21423;-68
2022/01/18 10:13:29;;;;;;;116.90;45.92;;;;;;;-0.06;53.01;147659.59;1753237;80;21100;-66
2022/01/18 10:16:20;;;;;;;68.83;29.50;;;;;;;0.01;52.41;147675.02;1730744;80;21577;-67
2022/01/18 10:18:56;;;;;;;95.12;38.88;;;;;;;0.06;51.06;147687.87;1742722;81;21139;-58
2022/01/18 10:21:33;;;;;;;81.47;32.58;;;;;;;0.10;49.84;147698.17;1742422;80;21119;-58
2022/01/18 10:24:23;;;;;;;87.80;29.40;;;;;;;0.15;50.22;147711.08;1747243;80;21091;-57
2022/01/18 10:26:57;;;;;;;104.23;34.08;;;;;;;0.21;49.61;147726.50;1745442;80;21076;-58
2022/01/18 10:29:43;;;;;;;54.65;18.27;;;;;;;0.21;50.11;147726.50;1740444;81;21626;-57
2022/01/18 10:37:25;;;;;;;115.42;45.12;;;;;;;0.40;48.36;147772.86;1745460;80;21122;-67
2022/01/18 10:40:14;;;;;;;54.83;21.05;;;;;;;0.46;47.38;147788.30;1747056;81;21080;-66
2022/01/18 10:42:49;;;;;;;49.33;17.95;;;;;;;0.44;48.36;147783.16;1745344;80;21067;-67
2022/01/18 10:45:30;;;;;;;76.75;35.78;;;;;;;0.43;48.50;147780.58;1745565;80;21069;-67
2022/01/18 10:48:01;;;;;;;88.00;38.47;;;;;;;0.44;48.70;147783.16;1751820;80;22131;-58
2022/01/18 10:50:36;;;;;;;68.37;30.10;;;;;;;0.49;48.83;147794.75;1776176;80;21063;-57
2022/01/18 10:53:17;;;;;;;;;;;;;;;0.48;47.99;147793.44;1771814;79;21632;-57
2022/01/18 10:55:45;;;;;;;24.45;9.00;;;;;;;0.46;48.18;147787.03;1765003;79;20233;-58
2022/01/18 10:58:14;;;;;;;53.30;24.15;;;;;;;0.40;48.68;147772.86;1747441;81;21087;-59
2022/01/18 11:00:45;;;;;;;22.20;8.93;;;;;;;0.40;49.44;147774.13;1774830;79;21116;-58
2022/01/18 11:03:12;;;;;;;4.83;2.40;;;;;;;0.42;49.21;147778.00;1774116;78;21064;-59
2022/01/18 11:05:43;;;;;;;21.90;8.25;;;;;;;0.38;49.20;147767.72;1748691;81;21079;-58
2022/01/18 11:08:10;;;;;;;71.45;32.25;;;;;;;0.30;49.41;147748.41;1769396;79;20974;-58
2022/01/18 11:10:41;;;;;;;88.55;38.13;;;;;;;0.24;49.97;147732.97;1750715;80;21080;-60
2022/01/18 11:13:20;;;;;;;75.90;30.97;;;;;;;0.19;49.96;147721.38;1739976;80;22337;-59
2022/01/18 11:15:45;;;;;;;95.72;46.35;;;;;;;0.15;50.05;147711.08;1734454;80;21088;-58
2022/01/18 11:18:17;;;;;;;69.30;27.00;;;;;;;0.15;49.75;147711.08;1773405;79;21127;-58
2022/01/18 11:20:45;;;;;;;41.40;16.87;;;;;;;0.18;50.10;147718.80;1751635;80;21093;-58
2022/01/18 11:23:13;;;;;;;17.62;7.17;;;;;;;0.24;49.75;147734.22;1781926;80;22409;-57
2022/01/18 11:25:40;;;;;;;49.15;18.17;;;;;;;0.28;47.66;147744.52;1775291;80;21924;-57
2022/01/18 11:28:10;;;;;;;54.88;22.40;;;;;;;0.36;48.02;147762.56;1772521;79;21050;-57
2022/01/18 11:30:42;;;;;;;23.60;10.43;;;;;;;0.43;48.34;147780.58;1772837;78;21037;-58
2022/01/18 11:33:12;;;;;;;63.45;24.95;;;;;;;0.52;48.55;147802.47;1771988;79;21186;-57
2022/01/18 11:36:09;;;;;;;76.20;33.83;;;;;;;0.56;48.91;147812.77;1734345;80;21091;-57
2022/01/18 11:38:51;;;;;;;78.30;34.78;;;;;;;0.59;49.93;147819.22;1736760;80;21485;-57
2022/01/18 11:41:30;;;;;;;36.88;12.93;;;;;;;0.64;50.23;147832.08;1712902;81;21047;-57
2022/01/18 11:43:59;;;;;;;92.72;33.15;;;;;;;0.60;51.02;147821.78;1742975;81;21127;-58
2022/01/18 11:46:30;;;;;;;106.95;37.45;;;;;;;0.45;52.04;147784.47;1745204;81;21067;-59
2022/01/18 11:49:21;;;;;;;146.22;49.73;;;;;;;0.34;52.69;147757.44;1745874;81;21067;-57
2022/01/18 11:52:00;;;;;;;149.85;57.30;;;;;;;0.26;53.58;147739.37;1711564;81;21135;-57
2022/01/18 11:54:37;;;;;;;62.80;23.80;;;;;;;0.20;55.29;147723.94;1768168;80;21103;-57
2022/01/18 11:57:27;;;;;;;136.62;49.70;;;;;;;0.16;57.01;147713.66;1744869;81;21123;-59
2022/01/18 12:00:13;;;;;;;150.60;55.35;;;;;;;0.11;57.79;147700.75;1726203;81;21079;-58
2022/01/18 12:02:42;;;;;;;122.98;47.20;;;;;;;0.11;57.37;147700.75;1763013;79;21091;-58
2022/01/18 12:05:25;;;;;;;42.08;15.98;;;;;;;0.21;57.23;147725.20;1739668;80;21123;-58
2022/01/18 12:07:57;;;;;;;50.80;18.90;;;;;;;0.28;56.60;147744.52;1741782;81;21034;-58
2022/01/18 12:10:38;;;;;;;64.53;23.92;;;;;;;0.36;56.13;147762.56;1773977;78;21079;-59
2022/01/18 12:13:11;;;;;;;93.35;36.25;;;;;;;0.38;55.05;147767.72;1745081;81;21103;-58
2022/01/18 12:15:46;;;;;;;37.38;12.85;;;;;;;0.38;55.98;147767.72;1738674;81;21068;-57
2022/01/18 12:18:20;;;;;;;13.88;4.58;;;;;;;0.32;59.92;147753.55;1741964;80;21734;-57
2022/01/18 12:20:50;;;;;;;83.40;28.45;;;;;;;0.16;62.70;147712.34;1740970;81;21064;-58
2022/01/18 12:23:41;;;;;;;5.72;1.57;;;;;;;-0.02;74.79;147669.88;1765492;80;21603;-57
2022/01/18 12:26:47;;;;;;;37.65;13.32;;;;;;;-0.24;77.70;147613.27;1764329;78;21127;-58
2022/01/18 12:34:35;;;;;;;34.07;14.03;;;;;;;-0.64;70.87;147514.22;1743306;80;21672;-58
2022/01/18 12:37:17;;;;;;;45.12;18.55;;;;;;;-0.60;68.44;147524.50;1766422;80;22521;-59
2022/01/18 12:40:08;;;;;;;13.53;4.47;;;;;;;-0.50;66.87;147548.94;1743374;80;21031;-57
2022/01/18 12:45:22;;;;;;;4.55;1.57;;;;;;;-0.35;63.86;147587.50;1766157;80;21725;-57
2022/01/18 12:47:55;;;;;;;11.40;4.80;;;;;;;-0.30;63.12;147600.41;1742688;79;21506;-59
2022/01/18 12:50:41;;;;;;;10.63;4.65;;;;;;;-0.25;62.08;147611.95;1761219;80;21087;-58
2022/01/18 12:53:14;;;;;;;73.20;28.70;;;;;;;-0.21;61.78;147620.97;1759339;80;21131;-57